FW1263 Weather Reports


Display with metric or nautical units.
time (UTC)temp
F
wind
direction
speed
MPH
gust
MPH
rain 1hr
in
rain 24hr
in
rain mn
in
humidity
%
barometer
mb
20220122063453 28 0 0.0 0.0 0.00 0.00 0.00 63 1029.7
20220122062552 29 0 0.0 0.0 0.00 0.00 0.00 66 1029.7
20220122061652 29 0 0.0 0.0 0.00 0.00 0.00 69 1029.7
20220122060752 29 0 0.0 0.0 0.00 0.00 0.00 70 1029.8
20220122055853 28 0 0.0 0.0 0.00 0.00 0.00 70 1029.8
20220122054952 28 0 0.0 0.0 0.00 0.00 0.00 60 1029.8
20220122054053 29 0 0.0 0.0 0.00 0.00 0.00 62 1029.9
20220122053153 30 0 0.0 0.0 0.00 0.00 0.00 63 1029.7
20220122052252 31 0 0.0 0.0 0.00 0.00 0.00 66 1029.5
20220122051352 30 0 0.0 0.0 0.00 0.00 0.00 65 1029.3
20220122050453 31 0 0.0 0.0 0.00 0.00 0.00 62 1029.6
20220122045552 31 0 0.0 0.0 0.00 0.00 0.00 64 1029.7
20220122044653 31 0 0.0 0.0 0.00 0.00 0.00 63 1029.5
20220122043752 30 0 0.0 0.0 0.00 0.00 0.00 65 1029.5
20220122042852 30 0 0.0 0.0 0.00 0.00 0.00 59 1029.5
20220122041953 30 0 0.0 0.0 0.00 0.00 0.00 55 1029.3
20220122041052 30 0 0.0 0.0 0.00 0.00 0.00 55 1029.1
20220122040153 30 0 0.0 0.0 0.00 0.00 0.00 57 1029.1
20220122035252 30 0 0.0 0.0 0.00 0.00 0.00 59 1029.1
20220122034352 30 0 0.0 0.0 0.00 0.00 0.00 62 1029.0
20220122033452 29 0 0.0 0.0 0.00 0.00 0.00 61 1029.0
20220122032552 29 0 0.0 0.0 0.00 0.00 0.00 62 1029.0
20220122031652 30 0 0.0 0.0 0.00 0.00 0.00 62 1029.0
20220122030752 30 0 0.0 0.0 0.00 0.00 0.00 67 1029.1
20220122025852 31 0 0.0 0.0 0.00 0.00 0.00 76 1029.1
20220122024952 30 0 0.0 0.0 0.00 0.00 0.00 68 1029.1
20220122024052 31 0 0.0 0.0 0.00 0.00 0.00 64 1029.1
20220122023152 32 0 0.0 0.0 0.00 0.00 0.00 61 1028.9
20220122022252 33 0 0.0 0.0 0.00 0.00 0.00 60 1028.7
20220122021352 32 0 0.0 0.0 0.00 0.00 0.00 54 1028.7
20220122020452 32 0 0.0 0.0 0.00 0.00 0.00 60 1028.7
20220122015553 33 0 0.0 0.0 0.00 0.00 0.00 64 1028.5
20220122014652 33 0 0.0 0.0 0.00 0.00 0.00 56 1028.4
20220122013752 34 0 0.0 0.0 0.00 0.00 0.00 49 1028.4
20220122012852 34 0 0.0 0.0 0.00 0.00 0.00 45 1028.3
20220122011952 33 0 0.0 0.0 0.00 0.00 0.00 48 1028.4
20220122011053 34 0 0.0 0.0 0.00 0.00 0.00 55 1028.4
20220122010152 35 0 0.0 0.0 0.00 0.00 0.00 45 1028.4
20220122005252 36 0 0.0 0.0 0.00 0.00 0.00 47 1028.1
20220122004353 36 0 0.0 0.0 0.00 0.00 0.00 42 1028.0
20220122003453 36 0 0.0 0.0 0.00 0.00 0.00 42 1027.8
20220122002553 37 0 0.0 0.0 0.00 0.00 0.00 40 1027.8
20220122001652 38 0 0.0 0.0 0.00 0.00 0.00 38 1027.8
20220122000752 39 0 0.0 0.0 0.00 0.00 0.00 35 1027.7
20220121235853 40 0 0.0 0.0 0.00 0.00 0.00 35 1027.5
20220121234952 40 0 0.0 0.0 0.00 0.00 0.00 33 1027.5
20220121234052 41 0 0.0 1.0 0.00 0.00 0.00 33 1027.4
20220121233152 42 160 1.0 5.0 0.00 0.00 0.00 32 1027.3
20220121232252 42 141 1.0 3.0 0.00 0.00 0.00 31 1027.2
20220121231352 42 156 1.0 4.0 0.00 0.00 0.00 32 1027.2
20220121230453 42 155 1.0 3.0 0.00 0.00 0.00 31 1027.4
20220121225553 43 0 0.0 2.0 0.00 0.00 0.00 31 1027.3
20220121224652 42 0 0.0 2.0 0.00 0.00 0.00 31 1027.3
20220121223752 43 0 0.0 1.0 0.00 0.00 0.00 31 1027.3
20220121222852 43 0 0.0 2.0 0.00 0.00 0.00 30 1027.3
20220121221952 43 0 0.0 3.0 0.00 0.00 0.00 31 1027.5
20220121221052 43 0 0.0 2.0 0.00 0.00 0.00 31 1027.6
20220121220152 43 0 0.0 2.0 0.00 0.00 0.00 29 1027.6
20220121215252 43 0 0.0 2.0 0.00 0.00 0.00 30 1027.7
20220121214353 43 0 0.0 3.0 0.00 0.00 0.00 30 1027.9
20220121213452 43 0 0.0 3.0 0.00 0.00 0.00 29 1028.1
20220121212552 43 154 1.0 3.0 0.00 0.00 0.00 30 1028.2
20220121211652 43 0 0.0 3.0 0.00 0.00 0.00 30 1028.1
20220121210752 42 0 0.0 3.0 0.00 0.00 0.00 29 1028.2
20220121205852 43 0 0.0 3.0 0.00 0.00 0.00 30 1028.3
20220121204952 42 160 1.0 4.0 0.00 0.00 0.00 30 1028.3
20220121204053 42 157 1.0 4.0 0.00 0.00 0.00 30 1028.3
20220121203152 42 117 1.0 3.0 0.00 0.00 0.00 31 1028.2
20220121202252 42 0 0.0 3.0 0.00 0.00 0.00 31 1028.3
20220121201352 41 152 1.0 4.0 0.00 0.00 0.00 31 1028.4
20220121200452 41 0 0.0 3.0 0.00 0.00 0.00 33 1028.5
20220121195552 41 221 1.0 5.0 0.00 0.00 0.00 31 1028.6
20220121194652 40 130 1.0 5.0 0.00 0.00 0.00 33 1028.8
20220121193752 40 138 1.0 4.0 0.00 0.00 0.00 33 1029.0
20220121192852 38 314 2.0 5.0 0.00 0.00 0.00 33 1029.2
20220121191952 38 316 1.0 5.0 0.00 0.00 0.00 34 1029.4
20220121191052 38 327 1.0 5.0 0.00 0.00 0.00 35 1029.6
20220121190152 37 308 2.0 4.0 0.00 0.00 0.00 36 1030.0
20220121185253 37 324 3.0 6.0 0.00 0.00 0.00 36 1030.2
20220121184352 37 307 2.0 5.0 0.00 0.00 0.00 39 1030.3
20220121183452 37 320 2.0 4.0 0.00 0.00 0.00 37 1030.6
20220121182552 37 35 1.0 4.0 0.00 0.00 0.00 36 1030.7
20220121181652 37 316 1.0 3.0 0.00 0.00 0.00 37 1030.9
20220121180752 36 327 1.0 3.0 0.00 0.00 0.00 38 1031.3
20220121175852 36 357 1.0 5.0 0.00 0.00 0.00 38 1031.5
20220121174952 36 0 0.0 3.0 0.00 0.00 0.00 39 1031.5
20220121174052 36 127 1.0 4.0 0.00 0.00 0.00 39 1031.5
20220121173152 35 150 1.0 4.0 0.00 0.00 0.00 40 1031.7
20220121172252 35 169 1.0 3.0 0.00 0.00 0.00 40 1031.8
20220121171352 34 0 0.0 2.0 0.00 0.00 0.00 39 1032.0
20220121170452 34 0 0.0 2.0 0.00 0.00 0.00 43 1032.1
20220121165552 33 145 1.0 4.0 0.00 0.00 0.00 42 1032.1
20220121164653 33 158 1.0 3.0 0.00 0.00 0.00 43 1032.0
20220121163753 32 162 1.0 3.0 0.00 0.00 0.00 44 1032.0
20220121162852 32 0 0.0 2.0 0.00 0.00 0.00 47 1032.1
20220121161952 31 185 1.0 4.0 0.00 0.00 0.00 46 1032.0
20220121161052 31 0 0.0 3.0 0.00 0.00 0.00 46 1032.0
20220121160152 29 331 1.0 4.0 0.00 0.00 0.00 48 1032.1
20220121155252 29 319 1.0 5.0 0.00 0.00 0.00 49 1032.0
20220121154352 28 0 0.0 2.0 0.00 0.00 0.00 51 1032.0
20220121153453 27 0 0.0 3.0 0.00 0.00 0.00 52 1031.9
20220121152553 26 317 1.0 3.0 0.00 0.00 0.00 54 1032.0
20220121151652 26 0 0.0 2.0 0.00 0.00 0.00 55 1032.0
20220121150752 25 0 0.0 2.0 0.00 0.00 0.00 55 1031.9
20220121145852 24 0 0.0 2.0 0.00 0.00 0.00 58 1031.8
20220121144952 23 0 0.0 4.0 0.00 0.00 0.00 59 1031.7
20220121144052 23 0 0.0 4.0 0.00 0.00 0.00 59 1031.7
20220121143152 23 0 0.0 0.0 0.00 0.00 0.00 61 1031.7
20220121142252 22 0 0.0 0.0 0.00 0.00 0.00 62 1031.6
20220121141352 22 0 0.0 0.0 0.00 0.00 0.00 63 1031.6
20220121140452 22 0 0.0 0.0 0.00 0.00 0.00 64 1031.6
20220121135552 21 0 0.0 0.0 0.00 0.00 0.00 63 1031.7
20220121134652 21 0 0.0 0.0 0.00 0.00 0.00 64 1031.7
20220121133752 21 0 0.0 0.0 0.00 0.00 0.00 64 1031.6
20220121132852 21 0 0.0 0.0 0.00 0.00 0.00 64 1031.4
20220121131952 22 0 0.0 0.0 0.00 0.00 0.00 62 1031.3
20220121131052 22 0 0.0 2.0 0.00 0.00 0.00 62 1031.2
20220121130152 22 0 0.0 2.0 0.00 0.00 0.00 63 1031.2
20220121125252 22 0 0.0 1.0 0.00 0.00 0.00 62 1031.2
20220121124352 22 0 0.0 0.0 0.00 0.00 0.00 63 1031.1
20220121123452 22 0 0.0 0.0 0.00 0.00 0.00 61 1030.8
20220121122552 22 0 0.0 0.0 0.00 0.00 0.00 61 1030.7
20220121121652 22 0 0.0 0.0 0.00 0.00 0.00 60 1030.6
20220121120752 22 0 0.0 1.0 0.00 0.00 0.00 60 1030.4
20220121115853 22 0 0.0 0.0 0.00 0.00 0.00 59 1030.5
20220121114952 22 0 0.0 0.0 0.00 0.00 0.00 59 1030.6
20220121114053 23 0 0.0 0.0 0.00 0.00 0.00 58 1030.7
20220121113152 23 0 0.0 1.0 0.00 0.00 0.00 56 1030.6
20220121112252 23 0 0.0 2.0 0.00 0.00 0.00 56 1030.7
20220121111352 23 0 0.0 1.0 0.00 0.00 0.00 55 1030.7
20220121110452 24 0 0.0 1.0 0.00 0.00 0.00 55 1030.8
20220121105552 24 0 0.0 0.0 0.00 0.00 0.00 54 1030.8
20220121104652 24 0 0.0 0.0 0.00 0.00 0.00 54 1030.8
20220121103752 24 0 0.0 0.0 0.00 0.00 0.00 53 1030.8
20220121102852 24 0 0.0 0.0 0.00 0.00 0.00 52 1030.9
20220121101952 25 0 0.0 3.0 0.00 0.00 0.00 51 1030.9
20220121101052 25 0 0.0 2.0 0.00 0.00 0.00 51 1030.8
20220121100152 25 0 0.0 3.0 0.00 0.00 0.00 51 1031.0
20220121095252 25 0 0.0 3.0 0.00 0.00 0.00 50 1031.0
20220121094352 26 0 0.0 3.0 0.00 0.00 0.00 50 1031.1
20220121093452 26 0 0.0 2.0 0.00 0.00 0.00 49 1031.2
20220121092552 26 0 0.0 1.0 0.00 0.00 0.00 49 1031.2
20220121091652 26 0 0.0 1.0 0.00 0.00 0.00 49 1031.4
20220121090752 26 0 0.0 1.0 0.00 0.00 0.00 49 1031.3
20220121085852 26 0 0.0 1.0 0.00 0.00 0.00 49 1031.4
20220121084952 26 0 0.0 3.0 0.00 0.00 0.00 50 1031.5
20220121084052 26 0 0.0 2.0 0.00 0.00 0.00 51 1031.5
20220121083152 26 0 0.0 1.0 0.00 0.00 0.00 50 1031.5
20220121082252 27 0 0.0 1.0 0.00 0.00 0.00 49 1031.5
20220121081352 27 0 0.0 4.0 0.00 0.00 0.00 50 1031.5
20220121080452 27 0 0.0 5.0 0.00 0.00 0.00 48 1031.5
20220121075552 27 0 0.0 1.0 0.00 0.00 0.00 49 1031.5
20220121074652 27 0 0.0 1.0 0.00 0.00 0.00 50 1031.6
20220121073753 27 0 0.0 1.0 0.00 0.00 0.00 50 1031.7
20220121072853 27 0 0.0 1.0 0.00 0.00 0.00 49 1031.5
20220121071952 27 0 0.0 2.0 0.00 0.00 0.00 49 1031.5
20220121071052 28 0 0.0 2.0 0.00 0.00 0.00 49 1031.6
20220121070153 28 0 0.0 3.0 0.00 0.00 0.00 50 1031.8
20220121065252 28 0 0.0 3.0 0.00 0.00 0.00 47 1031.9
20220121064352 28 0 0.0 2.0 0.00 0.00 0.00 47 1032.0